sensor_id;sensor_type;location;lat;lon;timestamp;P1;durP1;ratioP1;P2;durP2;ratioP2
63817;SDS011;53093;55.092;73.476;2022-07-24T00:01:50;7.55;;;5.50;;
63817;SDS011;53093;55.092;73.476;2022-07-24T00:04:17;8.25;;;5.50;;
63817;SDS011;53093;55.092;73.476;2022-07-24T00:06:44;7.13;;;5.18;;
63817;SDS011;53093;55.092;73.476;2022-07-24T00:09:10;8.38;;;5.60;;
63817;SDS011;53093;55.092;73.476;2022-07-24T00:11:37;6.78;;;5.35;;
63817;SDS011;53093;55.092;73.476;2022-07-24T00:14:14;7.45;;;5.25;;
63817;SDS011;53093;55.092;73.476;2022-07-24T00:16:42;8.15;;;5.13;;
63817;SDS011;53093;55.092;73.476;2022-07-24T00:19:09;6.68;;;5.45;;
63817;SDS011;53093;55.092;73.476;2022-07-24T00:21:36;7.65;;;5.45;;
63817;SDS011;53093;55.092;73.476;2022-07-24T00:24:04;5.80;;;5.20;;
63817;SDS011;53093;55.092;73.476;2022-07-24T00:26:41;7.20;;;5.13;;
63817;SDS011;53093;55.092;73.476;2022-07-24T00:29:08;5.85;;;4.68;;
63817;SDS011;53093;55.092;73.476;2022-07-24T00:31:35;7.65;;;5.35;;
63817;SDS011;53093;55.092;73.476;2022-07-24T00:34:02;7.68;;;5.30;;
63817;SDS011;53093;55.092;73.476;2022-07-24T00:36:29;7.25;;;5.25;;
63817;SDS011;53093;55.092;73.476;2022-07-24T00:38:56;6.72;;;4.72;;
63817;SDS011;53093;55.092;73.476;2022-07-24T00:41:23;8.32;;;5.20;;
63817;SDS011;53093;55.092;73.476;2022-07-24T00:44:00;5.60;;;4.80;;
63817;SDS011;53093;55.092;73.476;2022-07-24T00:46:32;6.97;;;4.72;;
63817;SDS011;53093;55.092;73.476;2022-07-24T00:49:10;6.80;;;5.20;;
63817;SDS011;53093;55.092;73.476;2022-07-24T00:51:38;7.55;;;5.00;;
63817;SDS011;53093;55.092;73.476;2022-07-24T00:54:06;5.70;;;4.68;;
63817;SDS011;53093;55.092;73.476;2022-07-24T00:56:38;7.15;;;4.95;;
63817;SDS011;53093;55.092;73.476;2022-07-24T00:59:05;6.45;;;5.10;;
63817;SDS011;53093;55.092;73.476;2022-07-24T01:01:32;6.30;;;5.20;;
63817;SDS011;53093;55.092;73.476;2022-07-24T01:04:01;6.43;;;5.10;;
63817;SDS011;53093;55.092;73.476;2022-07-24T01:06:28;7.68;;;5.28;;
63817;SDS011;53093;55.092;73.476;2022-07-24T01:08:55;6.97;;;4.95;;
63817;SDS011;53093;55.092;73.476;2022-07-24T01:11:22;8.10;;;4.85;;
63817;SDS011;53093;55.092;73.476;2022-07-24T01:13:54;7.13;;;4.20;;
63817;SDS011;53093;55.092;73.476;2022-07-24T01:16:21;4.10;;;3.70;;
63817;SDS011;53093;55.092;73.476;2022-07-24T01:18:48;4.90;;;3.90;;
63817;SDS011;53093;55.092;73.476;2022-07-24T01:21:15;4.43;;;3.90;;
63817;SDS011;53093;55.092;73.476;2022-07-24T01:23:47;4.70;;;3.70;;
63817;SDS011;53093;55.092;73.476;2022-07-24T01:26:14;4.13;;;3.72;;
63817;SDS011;53093;55.092;73.476;2022-07-24T01:28:42;4.15;;;3.55;;
63817;SDS011;53093;55.092;73.476;2022-07-24T01:31:09;4.10;;;3.50;;
63817;SDS011;53093;55.092;73.476;2022-07-24T01:33:36;3.92;;;3.05;;
63817;SDS011;53093;55.092;73.476;2022-07-24T01:36:03;3.72;;;2.95;;
63817;SDS011;53093;55.092;73.476;2022-07-24T01:38:30;3.65;;;2.90;;
63817;SDS011;53093;55.092;73.476;2022-07-24T01:40:57;3.72;;;2.88;;
63817;SDS011;53093;55.092;73.476;2022-07-24T01:43:24;3.75;;;2.60;;
63817;SDS011;53093;55.092;73.476;2022-07-24T01:45:51;3.58;;;2.65;;
63817;SDS011;53093;55.092;73.476;2022-07-24T01:48:18;2.78;;;2.35;;
63817;SDS011;53093;55.092;73.476;2022-07-24T01:50:45;3.35;;;2.03;;
63817;SDS011;53093;55.092;73.476;2022-07-24T01:53:12;3.85;;;2.17;;
63817;SDS011;53093;55.092;73.476;2022-07-24T01:55:39;3.15;;;2.08;;
63817;SDS011;53093;55.092;73.476;2022-07-24T01:58:06;3.85;;;1.90;;
63817;SDS011;53093;55.092;73.476;2022-07-24T02:00:33;2.50;;;1.88;;
63817;SDS011;53093;55.092;73.476;2022-07-24T02:02:59;3.00;;;2.00;;
63817;SDS011;53093;55.092;73.476;2022-07-24T02:05:28;2.35;;;1.70;;
63817;SDS011;53093;55.092;73.476;2022-07-24T02:07:56;2.28;;;1.90;;
63817;SDS011;53093;55.092;73.476;2022-07-24T02:10:24;2.33;;;1.60;;
63817;SDS011;53093;55.092;73.476;2022-07-24T02:12:56;3.85;;;1.83;;
63817;SDS011;53093;55.092;73.476;2022-07-24T02:15:28;3.63;;;1.42;;
63817;SDS011;53093;55.092;73.476;2022-07-24T02:17:56;1.77;;;1.67;;
63817;SDS011;53093;55.092;73.476;2022-07-24T02:20:23;2.22;;;1.58;;
63817;SDS011;53093;55.092;73.476;2022-07-24T02:23:00;2.08;;;1.50;;
63817;SDS011;53093;55.092;73.476;2022-07-24T02:25:27;2.13;;;1.60;;
63817;SDS011;53093;55.092;73.476;2022-07-24T02:27:54;1.98;;;1.50;;
63817;SDS011;53093;55.092;73.476;2022-07-24T02:30:22;2.92;;;1.48;;
63817;SDS011;53093;55.092;73.476;2022-07-24T02:32:49;3.10;;;1.50;;
63817;SDS011;53093;55.092;73.476;2022-07-24T02:35:16;1.40;;;1.30;;
63817;SDS011;53093;55.092;73.476;2022-07-24T02:37:43;2.03;;;1.40;;
63817;SDS011;53093;55.092;73.476;2022-07-24T02:40:11;1.77;;;1.23;;
63817;SDS011;53093;55.092;73.476;2022-07-24T02:42:38;1.27;;;1.17;;
63817;SDS011;53093;55.092;73.476;2022-07-24T02:45:05;1.20;;;1.10;;
63817;SDS011;53093;55.092;73.476;2022-07-24T02:47:33;1.40;;;1.30;;
63817;SDS011;53093;55.092;73.476;2022-07-24T02:50:00;1.42;;;1.10;;
63817;SDS011;53093;55.092;73.476;2022-07-24T02:52:27;1.38;;;1.13;;
63817;SDS011;53093;55.092;73.476;2022-07-24T02:54:54;1.35;;;1.25;;
63817;SDS011;53093;55.092;73.476;2022-07-24T02:57:26;1.30;;;1.20;;
63817;SDS011;53093;55.092;73.476;2022-07-24T02:59:53;1.85;;;1.08;;
63817;SDS011;53093;55.092;73.476;2022-07-24T03:02:20;1.38;;;1.00;;
63817;SDS011;53093;55.092;73.476;2022-07-24T03:04:47;1.00;;;1.00;;
63817;SDS011;53093;55.092;73.476;2022-07-24T03:07:14;0.93;;;0.93;;
63817;SDS011;53093;55.092;73.476;2022-07-24T03:09:41;1.33;;;0.90;;
63817;SDS011;53093;55.092;73.476;2022-07-24T03:12:08;2.25;;;1.00;;
63817;SDS011;53093;55.092;73.476;2022-07-24T03:14:35;2.10;;;1.00;;
63817;SDS011;53093;55.092;73.476;2022-07-24T03:17:04;1.02;;;0.90;;
63817;SDS011;53093;55.092;73.476;2022-07-24T03:19:31;1.80;;;0.85;;
63817;SDS011;53093;55.092;73.476;2022-07-24T03:22:02;1.85;;;0.90;;
63817;SDS011;53093;55.092;73.476;2022-07-24T03:24:33;1.17;;;1.05;;
63817;SDS011;53093;55.092;73.476;2022-07-24T03:27:02;0.90;;;0.90;;
63817;SDS011;53093;55.092;73.476;2022-07-24T03:29:28;1.65;;;0.77;;
63817;SDS011;53093;55.092;73.476;2022-07-24T03:31:55;2.72;;;1.10;;
63817;SDS011;53093;55.092;73.476;2022-07-24T03:34:22;2.67;;;1.25;;
63817;SDS011;53093;55.092;73.476;2022-07-24T03:36:49;0.90;;;0.90;;
63817;SDS011;53093;55.092;73.476;2022-07-24T03:39:16;1.67;;;0.90;;
63817;SDS011;53093;55.092;73.476;2022-07-24T03:41:49;2.08;;;1.13;;
63817;SDS011;53093;55.092;73.476;2022-07-24T03:44:16;1.73;;;1.00;;
63817;SDS011;53093;55.092;73.476;2022-07-24T03:46:42;0.80;;;0.80;;
63817;SDS011;53093;55.092;73.476;2022-07-24T03:49:19;2.67;;;1.10;;
63817;SDS011;53093;55.092;73.476;2022-07-24T03:51:46;3.05;;;1.17;;
63817;SDS011;53093;55.092;73.476;2022-07-24T03:54:13;2.05;;;0.80;;
63817;SDS011;53093;55.092;73.476;2022-07-24T03:56:41;0.90;;;0.85;;
63817;SDS011;53093;55.092;73.476;2022-07-24T03:59:09;0.85;;;0.77;;
63817;SDS011;53093;55.092;73.476;2022-07-24T04:01:35;2.08;;;0.80;;
63817;SDS011;53093;55.092;73.476;2022-07-24T04:04:03;1.30;;;1.00;;
63817;SDS011;53093;55.092;73.476;2022-07-24T04:06:31;0.75;;;0.75;;
63817;SDS011;53093;55.092;73.476;2022-07-24T04:09:08;0.90;;;0.90;;
63817;SDS011;53093;55.092;73.476;2022-07-24T04:11:35;5.40;;;0.80;;
63817;SDS011;53093;55.092;73.476;2022-07-24T04:14:02;1.08;;;1.00;;
63817;SDS011;53093;55.092;73.476;2022-07-24T04:16:29;1.02;;;0.93;;
63817;SDS011;53093;55.092;73.476;2022-07-24T04:18:56;0.80;;;0.80;;
63817;SDS011;53093;55.092;73.476;2022-07-24T04:21:23;0.80;;;0.80;;
63817;SDS011;53093;55.092;73.476;2022-07-24T04:23:50;3.75;;;1.25;;
63817;SDS011;53093;55.092;73.476;2022-07-24T04:26:17;1.02;;;1.02;;
63817;SDS011;53093;55.092;73.476;2022-07-24T04:28:44;2.25;;;1.13;;
63817;SDS011;53093;55.092;73.476;2022-07-24T04:31:11;1.10;;;1.00;;
63817;SDS011;53093;55.092;73.476;2022-07-24T04:33:38;3.38;;;1.10;;
63817;SDS011;53093;55.092;73.476;2022-07-24T04:36:10;1.30;;;1.20;;
63817;SDS011;53093;55.092;73.476;2022-07-24T04:38:37;1.83;;;1.10;;
63817;SDS011;53093;55.092;73.476;2022-07-24T04:41:04;1.40;;;1.08;;
63817;SDS011;53093;55.092;73.476;2022-07-24T04:43:31;1.42;;;1.00;;
63817;SDS011;53093;55.092;73.476;2022-07-24T04:45:58;0.95;;;0.95;;
63817;SDS011;53093;55.092;73.476;2022-07-24T04:48:25;1.88;;;0.93;;
63817;SDS011;53093;55.092;73.476;2022-07-24T04:50:52;1.83;;;1.02;;
63817;SDS011;53093;55.092;73.476;2022-07-24T04:53:19;3.75;;;1.20;;
63817;SDS011;53093;55.092;73.476;2022-07-24T04:55:46;1.20;;;1.10;;
63817;SDS011;53093;55.092;73.476;2022-07-24T04:58:13;1.67;;;1.20;;
63817;SDS011;53093;55.092;73.476;2022-07-24T05:00:40;1.10;;;1.00;;
63817;SDS011;53093;55.092;73.476;2022-07-24T05:03:07;1.00;;;1.00;;
63817;SDS011;53093;55.092;73.476;2022-07-24T05:05:34;1.45;;;1.10;;
63817;SDS011;53093;55.092;73.476;2022-07-24T05:08:01;1.67;;;0.90;;
63817;SDS011;53093;55.092;73.476;2022-07-24T05:10:28;1.63;;;0.88;;
63817;SDS011;53093;55.092;73.476;2022-07-24T05:12:55;1.17;;;1.00;;
63817;SDS011;53093;55.092;73.476;2022-07-24T05:15:22;1.20;;;1.02;;
63817;SDS011;53093;55.092;73.476;2022-07-24T05:17:49;1.20;;;1.10;;
63817;SDS011;53093;55.092;73.476;2022-07-24T05:20:16;3.40;;;1.08;;
63817;SDS011;53093;55.092;73.476;2022-07-24T05:22:43;6.30;;;1.30;;
63817;SDS011;53093;55.092;73.476;2022-07-24T05:25:10;1.13;;;1.02;;
63817;SDS011;53093;55.092;73.476;2022-07-24T05:27:37;2.63;;;1.15;;
63817;SDS011;53093;55.092;73.476;2022-07-24T05:30:04;3.33;;;1.20;;
63817;SDS011;53093;55.092;73.476;2022-07-24T05:32:31;3.35;;;1.08;;
63817;SDS011;53093;55.092;73.476;2022-07-24T05:34:58;1.20;;;1.10;;
63817;SDS011;53093;55.092;73.476;2022-07-24T05:37:25;2.30;;;1.20;;
63817;SDS011;53093;55.092;73.476;2022-07-24T05:39:52;3.88;;;1.40;;
63817;SDS011;53093;55.092;73.476;2022-07-24T05:42:19;2.28;;;1.20;;
63817;SDS011;53093;55.092;73.476;2022-07-24T05:44:46;2.67;;;1.50;;
63817;SDS011;53093;55.092;73.476;2022-07-24T05:47:14;1.38;;;1.23;;
63817;SDS011;53093;55.092;73.476;2022-07-24T05:49:41;1.40;;;1.30;;
63817;SDS011;53093;55.092;73.476;2022-07-24T05:52:08;1.40;;;1.30;;
63817;SDS011;53093;55.092;73.476;2022-07-24T05:54:34;1.48;;;1.30;;
63817;SDS011;53093;55.092;73.476;2022-07-24T05:57:06;1.73;;;1.50;;
63817;SDS011;53093;55.092;73.476;2022-07-24T05:59:33;2.45;;;1.42;;
63817;SDS011;53093;55.092;73.476;2022-07-24T06:02:00;6.60;;;1.60;;
63817;SDS011;53093;55.092;73.476;2022-07-24T06:04:30;2.83;;;1.25;;
63817;SDS011;53093;55.092;73.476;2022-07-24T06:06:57;3.58;;;1.45;;
63817;SDS011;53093;55.092;73.476;2022-07-24T06:09:24;1.35;;;1.20;;
63817;SDS011;53093;55.092;73.476;2022-07-24T06:11:58;3.33;;;1.50;;
63817;SDS011;53093;55.092;73.476;2022-07-24T06:14:25;1.55;;;1.30;;
63817;SDS011;53093;55.092;73.476;2022-07-24T06:16:57;1.48;;;1.38;;
63817;SDS011;53093;55.092;73.476;2022-07-24T06:19:25;2.55;;;1.38;;
63817;SDS011;53093;55.092;73.476;2022-07-24T06:21:52;1.80;;;1.45;;
63817;SDS011;53093;55.092;73.476;2022-07-24T06:24:24;6.10;;;1.42;;
63817;SDS011;53093;55.092;73.476;2022-07-24T06:26:51;4.03;;;1.45;;
63817;SDS011;53093;55.092;73.476;2022-07-24T06:29:18;2.25;;;1.50;;
63817;SDS011;53093;55.092;73.476;2022-07-24T06:31:45;4.10;;;1.50;;
63817;SDS011;53093;55.092;73.476;2022-07-24T06:34:12;1.63;;;1.50;;
63817;SDS011;53093;55.092;73.476;2022-07-24T06:36:50;3.75;;;1.70;;
63817;SDS011;53093;55.092;73.476;2022-07-24T06:39:17;2.15;;;1.50;;
63817;SDS011;53093;55.092;73.476;2022-07-24T06:41:44;1.85;;;1.45;;
63817;SDS011;53093;55.092;73.476;2022-07-24T06:44:24;1.42;;;1.30;;
63817;SDS011;53093;55.092;73.476;2022-07-24T06:46:56;2.63;;;1.40;;
63817;SDS011;53093;55.092;73.476;2022-07-24T06:49:23;2.22;;;1.50;;
63817;SDS011;53093;55.092;73.476;2022-07-24T06:51:50;1.50;;;1.40;;
63817;SDS011;53093;55.092;73.476;2022-07-24T06:54:21;4.50;;;1.48;;
63817;SDS011;53093;55.092;73.476;2022-07-24T06:56:48;1.48;;;1.38;;
63817;SDS011;53093;55.092;73.476;2022-07-24T06:59:15;2.78;;;1.60;;
63817;SDS011;53093;55.092;73.476;2022-07-24T07:01:42;4.70;;;1.50;;
63817;SDS011;53093;55.092;73.476;2022-07-24T07:04:09;2.55;;;1.40;;
63817;SDS011;53093;55.092;73.476;2022-07-24T07:06:36;1.40;;;1.30;;
63817;SDS011;53093;55.092;73.476;2022-07-24T07:09:03;2.67;;;1.50;;
63817;SDS011;53093;55.092;73.476;2022-07-24T07:11:30;3.15;;;1.35;;
63817;SDS011;53093;55.092;73.476;2022-07-24T07:13:57;2.92;;;1.60;;
63817;SDS011;53093;55.092;73.476;2022-07-24T07:16:24;2.58;;;1.60;;
63817;SDS011;53093;55.092;73.476;2022-07-24T07:18:51;1.65;;;1.42;;
63817;SDS011;53093;55.092;73.476;2022-07-24T07:21:18;4.50;;;2.00;;
63817;SDS011;53093;55.092;73.476;2022-07-24T07:23:45;9.02;;;2.30;;
63817;SDS011;53093;55.092;73.476;2022-07-24T07:26:12;5.43;;;1.70;;
63817;SDS011;53093;55.092;73.476;2022-07-24T07:28:39;1.80;;;1.58;;
63817;SDS011;53093;55.092;73.476;2022-07-24T07:31:06;3.28;;;1.80;;
63817;SDS011;53093;55.092;73.476;2022-07-24T07:33:33;4.07;;;1.60;;
63817;SDS011;53093;55.092;73.476;2022-07-24T07:36:00;1.70;;;1.60;;
63817;SDS011;53093;55.092;73.476;2022-07-24T07:38:27;3.20;;;1.98;;
63817;SDS011;53093;55.092;73.476;2022-07-24T07:40:54;3.22;;;1.60;;
63817;SDS011;53093;55.092;73.476;2022-07-24T07:43:21;4.47;;;1.58;;
63817;SDS011;53093;55.092;73.476;2022-07-24T07:45:48;2.35;;;1.55;;
63817;SDS011;53093;55.092;73.476;2022-07-24T07:48:15;3.38;;;1.52;;
63817;SDS011;53093;55.092;73.476;2022-07-24T07:50:42;2.33;;;1.50;;
63817;SDS011;53093;55.092;73.476;2022-07-24T07:53:10;1.50;;;1.40;;
63817;SDS011;53093;55.092;73.476;2022-07-24T07:55:37;3.03;;;1.42;;
63817;SDS011;53093;55.092;73.476;2022-07-24T07:58:04;4.00;;;1.35;;
63817;SDS011;53093;55.092;73.476;2022-07-24T08:00:32;4.13;;;1.50;;
63817;SDS011;53093;55.092;73.476;2022-07-24T08:03:00;1.58;;;1.45;;
63817;SDS011;53093;55.092;73.476;2022-07-24T08:05:27;3.47;;;1.60;;
63817;SDS011;53093;55.092;73.476;2022-07-24T08:07:54;3.78;;;1.50;;
63817;SDS011;53093;55.092;73.476;2022-07-24T08:10:22;2.10;;;1.30;;
63817;SDS011;53093;55.092;73.476;2022-07-24T08:12:49;2.30;;;1.50;;
63817;SDS011;53093;55.092;73.476;2022-07-24T08:15:16;19.73;;;2.28;;
63817;SDS011;53093;55.092;73.476;2022-07-24T08:17:43;5.43;;;1.80;;
63817;SDS011;53093;55.092;73.476;2022-07-24T08:20:11;2.33;;;1.60;;
63817;SDS011;53093;55.092;73.476;2022-07-24T08:22:38;2.08;;;1.50;;
63817;SDS011;53093;55.092;73.476;2022-07-24T08:25:05;1.90;;;1.70;;
63817;SDS011;53093;55.092;73.476;2022-07-24T08:27:35;2.72;;;1.40;;
63817;SDS011;53093;55.092;73.476;2022-07-24T08:30:03;7.50;;;4.50;;
63817;SDS011;53093;55.092;73.476;2022-07-24T08:32:30;2.30;;;2.10;;
63817;SDS011;53093;55.092;73.476;2022-07-24T08:34:57;3.88;;;2.40;;
63817;SDS011;53093;55.092;73.476;2022-07-24T08:37:24;1.98;;;1.85;;
63817;SDS011;53093;55.092;73.476;2022-07-24T08:39:51;1.90;;;1.60;;
63817;SDS011;53093;55.092;73.476;2022-07-24T08:42:18;3.00;;;2.00;;
63817;SDS011;53093;55.092;73.476;2022-07-24T08:44:46;2.90;;;2.05;;
63817;SDS011;53093;55.092;73.476;2022-07-24T08:47:14;5.10;;;2.28;;
63817;SDS011;53093;55.092;73.476;2022-07-24T08:49:45;4.95;;;2.15;;
63817;SDS011;53093;55.092;73.476;2022-07-24T08:52:13;3.25;;;2.20;;
63817;SDS011;53093;55.092;73.476;2022-07-24T08:54:42;4.25;;;2.40;;
63817;SDS011;53093;55.092;73.476;2022-07-24T08:57:09;3.30;;;2.50;;
63817;SDS011;53093;55.092;73.476;2022-07-24T08:59:36;4.40;;;2.33;;
63817;SDS011;53093;55.092;73.476;2022-07-24T09:02:03;6.28;;;2.50;;
63817;SDS011;53093;55.092;73.476;2022-07-24T09:04:39;4.88;;;2.65;;
63817;SDS011;53093;55.092;73.476;2022-07-24T09:07:07;10.15;;;2.78;;
63817;SDS011;53093;55.092;73.476;2022-07-24T09:09:38;13.70;;;2.90;;
63817;SDS011;53093;55.092;73.476;2022-07-24T09:14:33;7.20;;;3.30;;
63817;SDS011;53093;55.092;73.476;2022-07-24T09:17:02;9.85;;;3.03;;
63817;SDS011;53093;55.092;73.476;2022-07-24T09:19:29;5.35;;;2.80;;
63817;SDS011;53093;55.092;73.476;2022-07-24T09:21:56;7.32;;;3.10;;
63817;SDS011;53093;55.092;73.476;2022-07-24T09:24:23;4.00;;;2.97;;
63817;SDS011;53093;55.092;73.476;2022-07-24T09:26:52;3.78;;;2.72;;
63817;SDS011;53093;55.092;73.476;2022-07-24T09:29:20;7.47;;;3.33;;
63817;SDS011;53093;55.092;73.476;2022-07-24T09:31:54;5.05;;;3.13;;
63817;SDS011;53093;55.092;73.476;2022-07-24T09:34:22;3.42;;;3.13;;
63817;SDS011;53093;55.092;73.476;2022-07-24T09:37:00;6.18;;;3.90;;
63817;SDS011;53093;55.092;73.476;2022-07-24T09:39:28;3.38;;;3.00;;
63817;SDS011;53093;55.092;73.476;2022-07-24T09:41:56;9.30;;;4.63;;
63817;SDS011;53093;55.092;73.476;2022-07-24T09:44:23;5.13;;;3.80;;
63817;SDS011;53093;55.092;73.476;2022-07-24T09:46:57;5.47;;;4.13;;
63817;SDS011;53093;55.092;73.476;2022-07-24T09:49:24;8.48;;;3.17;;
63817;SDS011;53093;55.092;73.476;2022-07-24T09:52:06;5.68;;;3.67;;
63817;SDS011;53093;55.092;73.476;2022-07-24T09:54:47;5.85;;;4.10;;
63817;SDS011;53093;55.092;73.476;2022-07-24T09:59:48;6.05;;;3.30;;
63817;SDS011;53093;55.092;73.476;2022-07-24T10:02:17;7.30;;;4.18;;
63817;SDS011;53093;55.092;73.476;2022-07-24T10:04:45;10.93;;;4.70;;
63817;SDS011;53093;55.092;73.476;2022-07-24T10:07:23;7.20;;;3.95;;
63817;SDS011;53093;55.092;73.476;2022-07-24T10:09:53;6.50;;;4.35;;
63817;SDS011;53093;55.092;73.476;2022-07-24T10:12:28;9.68;;;3.05;;
63817;SDS011;53093;55.092;73.476;2022-07-24T10:15:06;4.05;;;3.20;;
63817;SDS011;53093;55.092;73.476;2022-07-24T10:17:38;7.43;;;3.90;;
63817;SDS011;53093;55.092;73.476;2022-07-24T10:20:09;4.38;;;3.05;;
63817;SDS011;53093;55.092;73.476;2022-07-24T10:22:47;10.40;;;3.33;;
63817;SDS011;53093;55.092;73.476;2022-07-24T10:25:20;7.72;;;2.88;;
63817;SDS011;53093;55.092;73.476;2022-07-24T10:27:54;3.67;;;3.33;;
63817;SDS011;53093;55.092;73.476;2022-07-24T10:30:24;4.15;;;3.20;;
63817;SDS011;53093;55.092;73.476;2022-07-24T10:32:52;7.22;;;3.50;;
63817;SDS011;53093;55.092;73.476;2022-07-24T10:35:20;3.50;;;3.05;;
63817;SDS011;53093;55.092;73.476;2022-07-24T10:40:48;4.03;;;3.40;;
63817;SDS011;53093;55.092;73.476;2022-07-24T10:43:19;7.28;;;3.45;;
63817;SDS011;53093;55.092;73.476;2022-07-24T10:46:31;3.47;;;3.00;;
63817;SDS011;53093;55.092;73.476;2022-07-24T10:48:36;6.13;;;3.60;;
63817;SDS011;53093;55.092;73.476;2022-07-24T10:58:55;3.67;;;3.25;;
63817;SDS011;53093;55.092;73.476;2022-07-24T11:01:27;4.75;;;3.05;;
63817;SDS011;53093;55.092;73.476;2022-07-24T11:03:59;4.55;;;3.47;;
63817;SDS011;53093;55.092;73.476;2022-07-24T11:06:45;5.45;;;3.40;;
63817;SDS011;53093;55.092;73.476;2022-07-24T11:09:12;12.88;;;3.70;;
63817;SDS011;53093;55.092;73.476;2022-07-24T11:14:23;6.90;;;3.30;;
63817;SDS011;53093;55.092;73.476;2022-07-24T11:16:50;8.48;;;3.40;;
63817;SDS011;53093;55.092;73.476;2022-07-24T11:21:46;4.60;;;2.88;;
63817;SDS011;53093;55.092;73.476;2022-07-24T11:26:57;4.22;;;3.40;;
63817;SDS011;53093;55.092;73.476;2022-07-24T11:32:05;4.40;;;3.88;;
63817;SDS011;53093;55.092;73.476;2022-07-24T11:34:34;5.63;;;4.30;;
63817;SDS011;53093;55.092;73.476;2022-07-24T11:37:02;6.38;;;3.90;;
63817;SDS011;53093;55.092;73.476;2022-07-24T11:39:31;4.40;;;4.00;;
63817;SDS011;53093;55.092;73.476;2022-07-24T11:41:59;6.68;;;4.38;;
63817;SDS011;53093;55.092;73.476;2022-07-24T11:44:39;9.07;;;4.07;;
63817;SDS011;53093;55.092;73.476;2022-07-24T11:49:41;5.20;;;3.70;;
63817;SDS011;53093;55.092;73.476;2022-07-24T11:52:13;4.68;;;3.85;;
63817;SDS011;53093;55.092;73.476;2022-07-24T11:54:40;4.20;;;3.80;;
63817;SDS011;53093;55.092;73.476;2022-07-24T11:57:18;5.63;;;3.40;;
63817;SDS011;53093;55.092;73.476;2022-07-24T11:59:46;4.50;;;3.45;;
63817;SDS011;53093;55.092;73.476;2022-07-24T12:02:14;4.85;;;3.47;;
63817;SDS011;53093;55.092;73.476;2022-07-24T12:04:41;4.72;;;3.50;;
63817;SDS011;53093;55.092;73.476;2022-07-24T12:07:09;4.57;;;3.47;;
63817;SDS011;53093;55.092;73.476;2022-07-24T12:09:48;4.10;;;3.70;;
63817;SDS011;53093;55.092;73.476;2022-07-24T12:12:26;5.13;;;4.10;;
63817;SDS011;53093;55.092;73.476;2022-07-24T12:15:14;4.75;;;3.50;;
63817;SDS011;53093;55.092;73.476;2022-07-24T12:17:57;4.18;;;3.88;;
63817;SDS011;53093;55.092;73.476;2022-07-24T12:20:31;7.03;;;3.80;;
63817;SDS011;53093;55.092;73.476;2022-07-24T12:25:25;4.78;;;3.70;;
63817;SDS011;53093;55.092;73.476;2022-07-24T12:28:06;4.25;;;3.70;;
63817;SDS011;53093;55.092;73.476;2022-07-24T12:30:34;5.60;;;3.60;;
63817;SDS011;53093;55.092;73.476;2022-07-24T12:33:04;8.48;;;4.00;;
63817;SDS011;53093;55.092;73.476;2022-07-24T12:35:32;8.18;;;3.67;;
63817;SDS011;53093;55.092;73.476;2022-07-24T12:38:00;27.98;;;8.57;;
63817;SDS011;53093;55.092;73.476;2022-07-24T12:40:35;5.30;;;4.80;;
63817;SDS011;53093;55.092;73.476;2022-07-24T12:43:10;4.20;;;3.80;;
63817;SDS011;53093;55.092;73.476;2022-07-24T12:45:39;6.88;;;4.03;;
63817;SDS011;53093;55.092;73.476;2022-07-24T12:48:07;4.75;;;4.15;;
63817;SDS011;53093;55.092;73.476;2022-07-24T12:50:35;5.32;;;3.80;;
63817;SDS011;53093;55.092;73.476;2022-07-24T12:53:13;3.95;;;3.55;;
63817;SDS011;53093;55.092;73.476;2022-07-24T12:55:43;4.90;;;4.13;;
63817;SDS011;53093;55.092;73.476;2022-07-24T12:58:10;5.07;;;4.47;;
63817;SDS011;53093;55.092;73.476;2022-07-24T13:00:37;5.75;;;5.15;;
63817;SDS011;53093;55.092;73.476;2022-07-24T13:03:04;6.90;;;4.20;;
63817;SDS011;53093;55.092;73.476;2022-07-24T13:05:41;9.05;;;7.47;;
63817;SDS011;53093;55.092;73.476;2022-07-24T13:08:17;12.90;;;5.72;;
63817;SDS011;53093;55.092;73.476;2022-07-24T13:10:44;4.38;;;3.95;;
63817;SDS011;53093;55.092;73.476;2022-07-24T13:13:11;8.88;;;5.03;;
63817;SDS011;53093;55.092;73.476;2022-07-24T13:15:38;5.38;;;4.40;;
63817;SDS011;53093;55.092;73.476;2022-07-24T13:18:08;6.50;;;4.63;;
63817;SDS011;53093;55.092;73.476;2022-07-24T13:20:35;17.10;;;6.93;;
63817;SDS011;53093;55.092;73.476;2022-07-24T13:23:02;42.67;;;12.05;;
63817;SDS011;53093;55.092;73.476;2022-07-24T13:25:29;7.88;;;5.47;;
63817;SDS011;53093;55.092;73.476;2022-07-24T13:28:03;6.67;;;4.40;;
63817;SDS011;53093;55.092;73.476;2022-07-24T13:30:31;4.20;;;3.60;;
63817;SDS011;53093;55.092;73.476;2022-07-24T13:32:57;4.22;;;3.55;;
63817;SDS011;53093;55.092;73.476;2022-07-24T13:35:24;33.78;;;5.57;;
63817;SDS011;53093;55.092;73.476;2022-07-24T13:37:56;6.35;;;3.95;;
63817;SDS011;53093;55.092;73.476;2022-07-24T13:40:23;6.40;;;3.60;;
63817;SDS011;53093;55.092;73.476;2022-07-24T13:42:50;3.92;;;3.60;;
63817;SDS011;53093;55.092;73.476;2022-07-24T13:45:17;3.85;;;3.13;;
63817;SDS011;53093;55.092;73.476;2022-07-24T13:47:44;3.78;;;3.45;;
63817;SDS011;53093;55.092;73.476;2022-07-24T13:50:11;3.60;;;3.30;;
63817;SDS011;53093;55.092;73.476;2022-07-24T13:52:49;5.10;;;3.45;;
63817;SDS011;53093;55.092;73.476;2022-07-24T13:55:16;4.25;;;3.28;;
63817;SDS011;53093;55.092;73.476;2022-07-24T13:57:43;5.03;;;3.67;;
63817;SDS011;53093;55.092;73.476;2022-07-24T14:00:10;4.88;;;3.80;;
63817;SDS011;53093;55.092;73.476;2022-07-24T14:02:42;4.25;;;3.60;;
63817;SDS011;53093;55.092;73.476;2022-07-24T14:05:09;8.30;;;3.80;;
63817;SDS011;53093;55.092;73.476;2022-07-24T14:07:36;9.90;;;4.90;;
63817;SDS011;53093;55.092;73.476;2022-07-24T14:10:03;24.85;;;6.40;;
63817;SDS011;53093;55.092;73.476;2022-07-24T14:12:35;11.73;;;7.60;;
63817;SDS011;53093;55.092;73.476;2022-07-24T14:15:02;11.73;;;9.25;;
63817;SDS011;53093;55.092;73.476;2022-07-24T14:17:29;13.00;;;7.82;;
63817;SDS011;53093;55.092;73.476;2022-07-24T14:19:56;9.15;;;5.80;;
63817;SDS011;53093;55.092;73.476;2022-07-24T14:22:23;23.95;;;10.88;;
63817;SDS011;53093;55.092;73.476;2022-07-24T14:24:50;15.50;;;6.38;;
63817;SDS011;53093;55.092;73.476;2022-07-24T14:27:17;50.95;;;19.83;;
63817;SDS011;53093;55.092;73.476;2022-07-24T14:29:44;16.58;;;8.60;;
63817;SDS011;53093;55.092;73.476;2022-07-24T14:32:11;11.55;;;7.18;;
63817;SDS011;53093;55.092;73.476;2022-07-24T14:34:48;21.00;;;8.63;;
63817;SDS011;53093;55.092;73.476;2022-07-24T14:37:15;15.10;;;9.00;;
63817;SDS011;53093;55.092;73.476;2022-07-24T14:39:42;25.17;;;11.35;;
63817;SDS011;53093;55.092;73.476;2022-07-24T14:42:09;22.10;;;10.32;;
63817;SDS011;53093;55.092;73.476;2022-07-24T14:44:37;14.20;;;9.93;;
63817;SDS011;53093;55.092;73.476;2022-07-24T14:47:04;19.95;;;12.02;;
63817;SDS011;53093;55.092;73.476;2022-07-24T14:49:34;26.23;;;12.13;;
63817;SDS011;53093;55.092;73.476;2022-07-24T14:52:01;33.30;;;16.13;;
63817;SDS011;53093;55.092;73.476;2022-07-24T14:54:27;51.50;;;18.58;;
63817;SDS011;53093;55.092;73.476;2022-07-24T14:56:54;83.20;;;32.78;;
63817;SDS011;53093;55.092;73.476;2022-07-24T14:59:21;63.85;;;22.52;;
63817;SDS011;53093;55.092;73.476;2022-07-24T15:01:48;109.88;;;27.38;;
63817;SDS011;53093;55.092;73.476;2022-07-24T15:04:15;172.48;;;38.28;;
63817;SDS011;53093;55.092;73.476;2022-07-24T15:06:42;83.43;;;25.15;;
63817;SDS011;53093;55.092;73.476;2022-07-24T15:09:09;55.50;;;23.23;;
63817;SDS011;53093;55.092;73.476;2022-07-24T15:11:36;82.10;;;27.55;;
63817;SDS011;53093;55.092;73.476;2022-07-24T15:14:04;62.25;;;26.60;;